createdAt,value
2022-09-10T00:01:38.471Z,2.24
2022-09-10T00:04:15.048Z,2.31
2022-09-10T00:06:44.207Z,2.18
2022-09-10T00:09:14.056Z,2.25
2022-09-10T00:11:42.939Z,2.22
2022-09-10T00:14:15.906Z,2.27
2022-09-10T00:16:44.343Z,2.17
2022-09-10T00:19:12.604Z,2.06
2022-09-10T00:21:40.395Z,2.19
2022-09-10T00:24:08.823Z,2.07
2022-09-10T00:26:39.864Z,2.01
2022-09-10T00:29:11.437Z,1.88
2022-09-10T00:31:39.372Z,1.93
2022-09-10T00:34:07.587Z,1.73
2022-09-10T00:36:40.594Z,1.78
2022-09-10T00:39:11.241Z,1.74
2022-09-10T00:41:41.527Z,1.72
2022-09-10T00:44:39.789Z,1.67
2022-09-10T00:47:14.997Z,1.69
2022-09-10T00:49:47.588Z,1.58
2022-09-10T00:52:15.781Z,1.63
2022-09-10T00:54:45.081Z,1.73
2022-09-10T00:57:19.131Z,1.75
2022-09-10T00:59:56.340Z,1.63
2022-09-10T01:02:26.383Z,1.68
2022-09-10T01:04:58.418Z,1.51
2022-09-10T01:07:29.587Z,1.44
2022-09-10T01:10:00.285Z,1.50
2022-09-10T01:12:51.020Z,1.44
2022-09-10T01:15:40.636Z,1.26
2022-09-10T01:18:27.641Z,0.46
2022-09-10T01:21:19.648Z,0.50
2022-09-10T01:24:18.311Z,0.89
2022-09-10T01:27:17.343Z,1.23
2022-09-10T01:29:51.084Z,1.28
2022-09-10T01:32:27.686Z,1.25
2022-09-10T01:35:10.463Z,1.25
2022-09-10T01:37:40.803Z,1.26
2022-09-10T01:40:09.812Z,1.18
2022-09-10T01:42:40.015Z,1.17
2022-09-10T01:45:11.600Z,1.02
2022-09-10T01:47:48.455Z,0.86
2022-09-10T01:50:57.650Z,0.49
2022-09-10T01:54:11.690Z,0.62
2022-09-10T01:56:51.967Z,0.90
2022-09-10T01:59:35.091Z,0.82
2022-09-10T02:02:10.499Z,0.94
2022-09-10T02:04:39.914Z,0.84
2022-09-10T02:07:10.878Z,0.84
2022-09-10T02:09:39.190Z,0.79
2022-09-10T02:12:08.294Z,0.16
2022-09-10T02:14:38.444Z,-0.21
2022-09-10T02:17:10.217Z,-0.61
2022-09-10T02:19:38.793Z,-0.17
2022-09-10T02:22:06.989Z,0.37
2022-09-10T02:24:34.689Z,0.58
2022-09-10T02:27:02.613Z,0.56
2022-09-10T02:29:31.632Z,0.46
2022-09-10T02:32:00.105Z,-0.04
2022-09-10T02:34:29.272Z,-0.31
2022-09-10T02:36:57.938Z,0.19
2022-09-10T02:39:26.214Z,0.41
2022-09-10T02:41:54.269Z,0.36
2022-09-10T02:44:23.259Z,0.27
2022-09-10T02:46:51.555Z,0.40
2022-09-10T02:49:19.816Z,0.43
2022-09-10T02:51:49.375Z,0.44
2022-09-10T02:54:22.898Z,0.46
2022-09-10T02:56:50.848Z,0.38
2022-09-10T02:59:20.118Z,0.13
2022-09-10T03:01:48.630Z,0.28
2022-09-10T03:04:17.582Z,-0.10
2022-09-10T03:06:49.675Z,-0.08
2022-09-10T03:09:17.879Z,0.02
2022-09-10T03:11:46.862Z,0.29
2022-09-10T03:14:20.443Z,0.09
2022-09-10T03:16:48.675Z,-0.27
2022-09-10T03:19:16.904Z,0.04
2022-09-10T03:21:50.644Z,-0.11
2022-09-10T03:24:18.975Z,-0.32
2022-09-10T03:26:46.808Z,-0.27
2022-09-10T03:29:15.836Z,-0.28
2022-09-10T03:31:45.453Z,-0.07
2022-09-10T03:34:13.475Z,0.10
2022-09-10T03:36:44.583Z,0.34
2022-09-10T03:39:12.785Z,0.40
2022-09-10T03:41:40.522Z,0.43
2022-09-10T03:44:09.092Z,0.74
2022-09-10T03:46:38.350Z,0.92
2022-09-10T03:49:06.758Z,1.08
2022-09-10T03:51:35.514Z,1.17
2022-09-10T03:54:03.924Z,1.52
2022-09-10T03:56:32.454Z,1.72
2022-09-10T03:59:00.662Z,1.97
2022-09-10T04:01:29.085Z,2.04
2022-09-10T04:03:57.796Z,2.16
2022-09-10T04:06:25.757Z,2.25
2022-09-10T04:08:53.573Z,2.31
2022-09-10T04:11:30.246Z,2.47
2022-09-10T04:13:58.292Z,2.63
2022-09-10T04:16:27.673Z,2.77
2022-09-10T04:18:56.348Z,2.87
2022-09-10T04:21:24.843Z,2.99
2022-09-10T04:23:57.226Z,3.12
2022-09-10T04:26:25.965Z,3.23
2022-09-10T04:28:54.478Z,3.39
2022-09-10T04:31:22.525Z,3.56
2022-09-10T04:33:51.040Z,3.71
2022-09-10T04:36:19.547Z,3.87
2022-09-10T04:38:47.365Z,4.04
2022-09-10T04:41:19.805Z,4.24
2022-09-10T04:43:48.426Z,4.44
2022-09-10T04:46:20.802Z,4.55
2022-09-10T04:48:50.224Z,4.77
2022-09-10T04:51:18.967Z,5.04
2022-09-10T04:53:49.467Z,5.27
2022-09-10T04:56:18.758Z,5.50
2022-09-10T04:58:47.338Z,5.78
2022-09-10T05:01:15.676Z,6.04
2022-09-10T05:03:44.639Z,6.26
2022-09-10T05:06:12.849Z,6.44
2022-09-10T05:08:41.011Z,6.66
2022-09-10T05:11:10.544Z,6.93
2022-09-10T05:13:38.406Z,7.16
2022-09-10T05:16:06.761Z,7.44
2022-09-10T05:18:35.305Z,7.71
2022-09-10T05:23:52.632Z,8.25
2022-09-10T05:26:20.753Z,8.53
2022-09-10T05:28:48.916Z,8.85
2022-09-10T05:31:17.773Z,9.14
2022-09-10T05:33:46.591Z,9.44
2022-09-10T05:36:15.113Z,9.73
2022-09-10T05:38:45.991Z,9.97
2022-09-10T05:41:14.924Z,10.22
2022-09-10T05:43:43.347Z,10.48
2022-09-10T05:46:11.507Z,10.72
2022-09-10T05:48:41.950Z,10.96
2022-09-10T05:51:11.032Z,11.24
2022-09-10T05:53:39.471Z,11.39
2022-09-10T05:56:07.941Z,11.70
2022-09-10T05:58:36.727Z,12.00
2022-09-10T06:01:06.436Z,12.34
2022-09-10T06:03:36.340Z,12.70
2022-09-10T06:06:04.448Z,12.92
2022-09-10T06:08:35.952Z,13.07
2022-09-10T06:11:07.183Z,13.29
2022-09-10T06:13:40.844Z,13.74
2022-09-10T06:16:09.732Z,14.02
2022-09-10T06:18:38.686Z,14.21
2022-09-10T06:21:18.570Z,13.97
2022-09-10T06:23:47.795Z,14.58
2022-09-10T06:26:18.789Z,14.68
2022-09-10T06:28:48.982Z,14.78
2022-09-10T06:31:19.603Z,15.00
2022-09-10T06:33:49.342Z,15.32
2022-09-10T06:36:17.976Z,15.22
2022-09-10T06:38:45.879Z,15.88
2022-09-10T06:41:15.013Z,15.88
2022-09-10T06:43:44.034Z,16.14
2022-09-10T06:46:50.690Z,16.44
2022-09-10T06:49:06.031Z,15.52
2022-09-10T06:51:34.852Z,15.12
2022-09-10T06:54:03.613Z,16.40
2022-09-10T06:56:32.811Z,16.95
2022-09-10T06:59:02.571Z,17.25
2022-09-10T07:01:31.803Z,16.98
2022-09-10T07:04:01.487Z,17.87
2022-09-10T07:06:35.113Z,16.27
2022-09-10T07:09:05.407Z,15.18
2022-09-10T07:11:37.969Z,17.84
2022-09-10T07:14:14.208Z,18.20
2022-09-10T07:16:44.691Z,18.40
2022-09-10T07:19:15.322Z,18.61
2022-09-10T07:21:44.080Z,16.35
2022-09-10T07:24:13.234Z,18.62
2022-09-10T07:26:42.737Z,19.64
2022-09-10T07:29:10.965Z,20.06
2022-09-10T07:31:39.068Z,20.28
2022-09-10T07:34:08.920Z,19.55
2022-09-10T07:36:36.883Z,19.35
2022-09-10T07:39:05.153Z,20.42
2022-09-10T07:41:37.206Z,19.29
2022-09-10T07:44:06.336Z,17.93
2022-09-10T07:46:35.064Z,20.65
2022-09-10T07:49:07.375Z,21.21
2022-09-10T07:51:39.263Z,21.28
2022-09-10T07:54:07.377Z,20.57
2022-09-10T07:56:36.899Z,21.55
2022-09-10T07:59:06.804Z,21.83
2022-09-10T08:01:37.337Z,22.08
2022-09-10T08:04:06.643Z,21.79
2022-09-10T08:06:35.028Z,19.81
2022-09-10T08:09:07.454Z,18.86
2022-09-10T08:11:35.729Z,17.54
2022-09-10T08:16:51.137Z,18.51
2022-09-10T08:19:22.068Z,21.53
2022-09-10T08:21:51.814Z,21.62
2022-09-10T08:24:20.185Z,23.21
2022-09-10T08:26:48.470Z,21.56
2022-09-10T08:29:16.726Z,21.71
2022-09-10T08:31:45.479Z,21.28
2022-09-10T08:34:14.403Z,21.58
2022-09-10T08:36:43.388Z,22.23
2022-09-10T08:39:12.352Z,21.65
2022-09-10T08:41:52.436Z,22.31
2022-09-10T08:44:36.952Z,23.61
2022-09-10T08:47:34.947Z,22.94
2022-09-10T08:50:13.510Z,21.39
2022-09-10T08:52:49.207Z,20.96
2022-09-10T08:55:21.891Z,19.41
2022-09-10T08:58:00.366Z,23.47
2022-09-10T09:00:34.960Z,22.91
2022-09-10T09:03:16.333Z,20.79
2022-09-10T09:05:50.144Z,21.32
2022-09-10T09:08:25.668Z,19.53
2022-09-10T09:11:05.369Z,19.67
2022-09-10T09:14:01.154Z,20.72
2022-09-10T09:16:53.543Z,20.37
2022-09-10T09:19:46.316Z,20.10
2022-09-10T09:22:20.498Z,21.24
2022-09-10T09:25:01.083Z,22.41
2022-09-10T09:27:36.683Z,19.44
2022-09-10T09:30:07.661Z,21.71
2022-09-10T09:32:41.058Z,24.94
2022-09-10T09:35:30.538Z,24.09
2022-09-10T09:38:21.442Z,23.79
2022-09-10T09:41:08.194Z,20.62
2022-09-10T09:43:42.629Z,18.92
2022-09-10T09:46:22.867Z,21.82
2022-09-10T09:48:58.673Z,23.12
2022-09-10T09:51:28.082Z,20.22
2022-09-10T09:54:25.852Z,22.46
2022-09-10T09:56:50.428Z,24.72
2022-09-10T09:59:35.057Z,21.27
2022-09-10T10:02:15.751Z,22.85
2022-09-10T10:05:07.572Z,22.07
2022-09-10T10:07:36.768Z,20.52
2022-09-10T10:10:07.787Z,22.80
2022-09-10T10:12:50.321Z,23.14
2022-09-10T10:15:36.812Z,21.47
2022-09-10T10:18:23.186Z,21.69
2022-09-10T10:21:12.855Z,23.54
2022-09-10T10:23:40.847Z,20.02
2022-09-10T10:26:21.263Z,21.25
2022-09-10T10:29:00.240Z,18.87
2022-09-10T10:31:38.926Z,20.36
2022-09-10T10:34:18.323Z,21.61
2022-09-10T10:37:03.265Z,20.35
2022-09-10T10:39:42.875Z,20.32
2022-09-10T10:42:22.869Z,17.91
2022-09-10T10:45:07.574Z,19.10
2022-09-10T10:47:45.743Z,23.56
2022-09-10T10:53:52.013Z,22.83
2022-09-10T10:56:36.577Z,21.28
2022-09-10T10:59:13.901Z,21.59
2022-09-10T11:01:54.487Z,23.03
2022-09-10T11:04:41.364Z,22.28
2022-09-10T11:07:17.680Z,20.73
2022-09-10T11:09:56.663Z,20.22
2022-09-10T11:12:36.308Z,20.80
2022-09-10T11:15:30.856Z,18.59
2022-09-10T11:18:21.426Z,19.85
2022-09-10T11:21:22.026Z,19.81
2022-09-10T11:24:04.652Z,19.32
2022-09-10T11:26:39.343Z,16.49
2022-09-10T11:29:22.676Z,21.69
2022-09-10T11:38:18.670Z,18.55
2022-09-10T11:41:04.806Z,16.61
2022-09-10T11:44:03.349Z,16.03
2022-09-10T11:46:43.570Z,16.03
2022-09-10T11:49:36.452Z,15.51
2022-09-10T11:52:04.311Z,16.05
2022-09-10T11:54:36.111Z,16.27
2022-09-10T11:57:19.308Z,16.92
2022-09-10T11:59:59.385Z,17.32
2022-09-10T12:02:52.566Z,20.59
2022-09-10T12:05:39.438Z,19.17
2022-09-10T12:08:07.230Z,19.96
2022-09-10T12:10:49.965Z,19.06
2022-09-10T12:13:17.915Z,19.35
2022-09-10T12:15:56.822Z,19.72
2022-09-10T12:18:34.410Z,19.87
2022-09-10T12:21:19.074Z,19.78
2022-09-10T12:23:47.028Z,20.26
2022-09-10T12:26:22.666Z,20.41
2022-09-10T12:28:53.309Z,20.98
2022-09-10T12:31:24.415Z,21.59
2022-09-10T12:33:52.093Z,21.75
2022-09-10T12:36:26.248Z,21.83
2022-09-10T12:39:31.128Z,22.04
2022-09-10T12:42:23.295Z,22.27
2022-09-10T12:44:51.535Z,21.67
2022-09-10T12:47:40.339Z,22.43
2022-09-10T12:50:46.547Z,22.61
2022-09-10T12:53:38.036Z,22.63
2022-09-10T12:56:39.656Z,23.13
2022-09-10T12:59:40.424Z,22.87
2022-09-10T13:02:30.106Z,23.16
2022-09-10T13:05:02.284Z,23.90
2022-09-10T13:07:36.135Z,24.19
2022-09-10T13:10:08.654Z,24.56
2022-09-10T13:12:43.005Z,24.82
2022-09-10T13:15:23.686Z,24.21
2022-09-10T13:17:51.783Z,24.70
2022-09-10T13:20:22.557Z,24.98
2022-09-10T13:22:53.357Z,25.23
2022-09-10T13:25:30.531Z,25.47
2022-09-10T13:27:58.586Z,25.59
2022-09-10T13:30:28.920Z,25.64
2022-09-10T13:33:04.989Z,25.60
2022-09-10T13:35:57.780Z,25.38
2022-09-10T13:39:09.093Z,25.30
2022-09-10T13:41:39.801Z,24.80
2022-09-10T13:44:45.694Z,24.86
2022-09-10T13:47:19.819Z,24.86
2022-09-10T13:50:12.334Z,25.22
2022-09-10T13:52:43.348Z,24.55
2022-09-10T13:55:19.364Z,23.83
2022-09-10T13:57:50.699Z,24.38
2022-09-10T14:00:25.650Z,24.87
2022-09-10T14:02:56.809Z,24.93
2022-09-10T14:05:34.208Z,24.84
2022-09-10T14:08:12.353Z,24.64
2022-09-10T14:10:56.130Z,24.39
2022-09-10T14:13:30.960Z,24.43
2022-09-10T14:16:01.596Z,23.85
2022-09-10T14:18:43.618Z,24.12
2022-09-10T14:21:13.800Z,24.06
2022-09-10T14:23:49.595Z,23.63
2022-09-10T14:26:26.856Z,22.95
2022-09-10T14:28:59.133Z,23.16
2022-09-10T14:31:30.368Z,23.03
2022-09-10T14:33:59.764Z,22.70
2022-09-10T14:36:30.392Z,22.60
2022-09-10T14:39:22.500Z,22.50
2022-09-10T14:42:10.825Z,22.26
2022-09-10T14:44:41.890Z,22.03
2022-09-10T14:47:09.655Z,21.98
2022-09-10T14:49:41.586Z,21.89
2022-09-10T14:52:12.358Z,21.73
2022-09-10T14:54:40.236Z,21.59
2022-09-10T14:57:14.281Z,21.21
2022-09-10T14:59:45.148Z,20.99
2022-09-10T15:02:23.709Z,20.83
2022-09-10T15:04:52.728Z,20.84
2022-09-10T15:07:23.890Z,20.79
2022-09-10T15:09:54.046Z,20.51
2022-09-10T15:12:31.816Z,20.37
2022-09-10T15:14:59.989Z,20.13
2022-09-10T15:17:28.039Z,20.02
2022-09-10T15:19:56.353Z,19.82
2022-09-10T15:22:27.299Z,19.53
2022-09-10T15:25:09.576Z,19.17
2022-09-10T15:27:37.942Z,18.66
2022-09-10T15:30:06.807Z,18.13
2022-09-10T15:32:34.720Z,17.27
2022-09-10T15:35:04.653Z,16.40
2022-09-10T15:37:32.515Z,15.72
2022-09-10T15:40:00.704Z,16.24
2022-09-10T15:42:31.889Z,16.25
2022-09-10T15:44:59.685Z,15.14
2022-09-10T15:47:27.781Z,15.48
2022-09-10T15:49:56.737Z,15.68
2022-09-10T15:52:24.620Z,15.72
2022-09-10T15:54:52.706Z,15.20
2022-09-10T15:57:20.935Z,14.90
2022-09-10T15:59:49.291Z,15.28
2022-09-10T16:02:17.640Z,15.06
2022-09-10T16:04:45.968Z,14.96
2022-09-10T16:07:14.735Z,15.00
2022-09-10T16:09:43.841Z,14.91
2022-09-10T16:12:12.447Z,14.31
2022-09-10T16:14:40.306Z,14.44
2022-09-10T16:17:10.792Z,14.46
2022-09-10T16:19:39.478Z,14.00
2022-09-10T16:22:08.459Z,13.83
2022-09-10T16:24:39.490Z,13.78
2022-09-10T16:27:07.387Z,13.68
2022-09-10T16:29:35.636Z,13.77
2022-09-10T16:32:04.060Z,13.64
2022-09-10T16:34:31.930Z,13.57
2022-09-10T16:37:00.077Z,13.30
2022-09-10T16:39:28.358Z,12.98
2022-09-10T16:41:56.520Z,12.50
2022-09-10T16:44:24.954Z,11.29
2022-09-10T16:46:53.193Z,10.74
2022-09-10T16:49:21.046Z,11.99
2022-09-10T16:51:52.199Z,12.04
2022-09-10T16:54:21.291Z,11.96
2022-09-10T16:56:49.425Z,12.15
2022-09-10T16:59:20.821Z,12.36
2022-09-10T17:01:52.172Z,12.37
2022-09-10T17:04:27.557Z,12.43
2022-09-10T17:07:00.116Z,12.28
2022-09-10T17:09:27.957Z,12.04
2022-09-10T17:11:57.594Z,12.03
2022-09-10T17:14:28.396Z,11.97
2022-09-10T17:16:56.939Z,11.43
2022-09-10T17:19:26.680Z,11.44
2022-09-10T17:21:56.171Z,11.17
2022-09-10T17:24:27.309Z,11.17
2022-09-10T17:26:55.746Z,11.25
2022-09-10T17:29:25.633Z,11.10
2022-09-10T17:31:57.765Z,11.07
2022-09-10T17:34:26.920Z,11.06
2022-09-10T17:36:55.411Z,11.03
2022-09-10T17:39:28.468Z,10.70
2022-09-10T17:41:57.273Z,10.43
2022-09-10T17:44:26.038Z,9.96
2022-09-10T17:46:55.449Z,10.43
2022-09-10T17:49:24.798Z,10.35
2022-09-10T17:51:53.646Z,9.94
2022-09-10T17:54:21.786Z,9.54
2022-09-10T17:56:50.195Z,9.35
2022-09-10T17:59:18.280Z,9.67
2022-09-10T18:01:46.292Z,9.73
2022-09-10T18:04:14.766Z,9.11
2022-09-10T18:06:45.931Z,9.00
2022-09-10T18:09:17.024Z,9.24
2022-09-10T18:11:45.575Z,9.33
2022-09-10T18:19:54.357Z,9.09
2022-09-10T18:22:22.649Z,8.79
2022-09-10T18:24:53.610Z,8.56
2022-09-10T18:27:21.417Z,8.22
2022-09-10T18:29:49.615Z,8.43
2022-09-10T18:32:18.481Z,8.69
2022-09-10T18:34:46.405Z,8.59
2022-09-10T18:37:14.662Z,8.48
2022-09-10T18:39:42.676Z,8.31
2022-09-10T18:42:13.130Z,8.62
2022-09-10T18:44:41.395Z,8.33
2022-09-10T18:47:34.221Z,8.36
2022-09-10T18:50:02.355Z,8.50
2022-09-10T18:52:31.855Z,8.43
2022-09-10T18:55:01.513Z,8.86
2022-09-10T18:57:31.997Z,7.91
2022-09-10T19:00:00.736Z,7.81
2022-09-10T19:02:31.386Z,7.24
2022-09-10T19:05:11.258Z,7.86
2022-09-10T19:07:40.317Z,7.63
2022-09-10T19:10:11.073Z,7.76
2022-09-10T19:12:40.029Z,7.95
2022-09-10T19:15:09.028Z,7.77
2022-09-10T19:17:37.019Z,7.85
2022-09-10T19:20:05.381Z,7.97
2022-09-10T19:22:34.285Z,8.07
2022-09-10T19:25:02.329Z,7.99
2022-09-10T19:27:34.645Z,7.81
2022-09-10T19:32:48.140Z,7.85
2022-09-10T19:35:16.526Z,7.54
2022-09-10T19:37:44.397Z,7.33
2022-09-10T19:40:12.700Z,7.27
2022-09-10T19:42:40.990Z,7.21
2022-09-10T19:50:41.690Z,6.36
2022-09-10T19:53:09.881Z,6.31
2022-09-10T19:58:23.348Z,6.77
2022-09-10T20:00:51.200Z,6.94
2022-09-10T20:03:19.478Z,7.01
2022-09-10T20:05:47.650Z,6.91
2022-09-10T20:08:15.886Z,6.57
2022-09-10T20:10:55.179Z,6.41
2022-09-10T20:13:25.370Z,6.34
2022-09-10T20:15:54.188Z,5.99
2022-09-10T20:18:28.024Z,6.22
2022-09-10T20:21:28.788Z,6.19
2022-09-10T20:23:56.867Z,6.17
2022-09-10T20:26:38.245Z,6.00
2022-09-10T20:29:09.793Z,6.11
2022-09-10T20:31:41.363Z,6.16
2022-09-10T20:34:13.189Z,5.97
2022-09-10T20:36:44.050Z,5.52
2022-09-10T20:42:03.134Z,5.66
2022-09-10T20:44:31.168Z,5.35
2022-09-10T20:46:58.956Z,5.37
2022-09-10T20:49:28.107Z,5.14
2022-09-10T20:51:56.510Z,5.28
2022-09-10T20:54:24.313Z,5.39
2022-09-10T20:56:52.588Z,5.33
2022-09-10T20:59:24.329Z,5.35
2022-09-10T21:01:57.027Z,5.39
2022-09-10T21:04:25.207Z,5.23
2022-09-10T21:06:53.065Z,5.32
2022-09-10T21:09:21.258Z,5.26
2022-09-10T21:11:49.536Z,4.99
2022-09-10T21:14:18.941Z,5.13
2022-09-10T21:16:47.604Z,5.11
2022-09-10T21:19:17.129Z,5.23
2022-09-10T21:21:46.363Z,5.09
2022-09-10T21:24:19.820Z,5.23
2022-09-10T21:26:47.430Z,5.10
2022-09-10T21:32:03.685Z,5.28
2022-09-10T21:34:32.718Z,5.35
2022-09-10T21:37:00.424Z,5.01
2022-09-10T21:39:28.256Z,5.09
2022-09-10T21:41:56.990Z,5.19
2022-09-10T21:44:25.301Z,4.85
2022-09-10T21:46:53.388Z,4.76
2022-09-10T21:49:21.617Z,4.71
2022-09-10T21:51:49.524Z,4.78
2022-09-10T21:54:21.205Z,4.97
2022-09-10T21:56:50.813Z,5.21
2022-09-10T21:59:20.641Z,5.02
2022-09-10T22:01:49.175Z,4.98
2022-09-10T22:04:22.417Z,5.15
2022-09-10T22:06:52.179Z,5.19
2022-09-10T22:09:21.581Z,5.08
2022-09-10T22:11:52.212Z,4.84
2022-09-10T22:14:23.893Z,4.67
2022-09-10T22:16:52.778Z,4.79
2022-09-10T22:19:24.135Z,4.88
2022-09-10T22:21:54.482Z,4.81
2022-09-10T22:24:22.718Z,4.79
2022-09-10T22:26:53.580Z,4.68
2022-09-10T22:29:21.642Z,4.88
2022-09-10T22:31:50.448Z,4.96
2022-09-10T22:34:21.098Z,4.51
2022-09-10T22:36:49.980Z,4.21
2022-09-10T22:39:20.254Z,3.90
2022-09-10T22:41:51.496Z,4.01
2022-09-10T22:44:20.398Z,3.76
2022-09-10T22:46:48.335Z,4.05
2022-09-10T22:49:16.831Z,3.59
2022-09-10T22:51:45.122Z,3.50
2022-09-10T22:54:13.018Z,3.78
2022-09-10T22:56:42.274Z,3.64
2022-09-10T22:59:14.256Z,3.99
2022-09-10T23:01:43.807Z,3.56
2022-09-10T23:04:12.446Z,3.17
2022-09-10T23:06:40.845Z,2.87
2022-09-10T23:09:15.009Z,3.13
2022-09-10T23:11:44.770Z,3.48
2022-09-10T23:14:15.961Z,3.49
2022-09-10T23:16:48.631Z,3.53
2022-09-10T23:19:25.336Z,3.30
2022-09-10T23:21:55.509Z,3.11
2022-09-10T23:24:25.305Z,3.43
2022-09-10T23:26:54.094Z,3.86
2022-09-10T23:29:23.675Z,3.92
2022-09-10T23:31:54.959Z,3.98
2022-09-10T23:34:23.158Z,3.69
2022-09-10T23:36:52.099Z,3.34
2022-09-10T23:39:24.746Z,3.15
2022-09-10T23:41:55.536Z,3.43
2022-09-10T23:44:23.556Z,3.60
2022-09-10T23:46:51.700Z,3.35
2022-09-10T23:49:20.021Z,3.09
2022-09-10T23:51:49.383Z,3.28
2022-09-10T23:54:18.056Z,3.44
2022-09-10T23:56:46.330Z,3.16
2022-09-10T23:59:15.551Z,3.09
